sensor_id;sensor_type;location;lat;lon;timestamp;temperature;humidity
47660;DHT22;33403;43.608;1.458;2023-05-01T00:01:08;15.00;99.90
47660;DHT22;33403;43.608;1.458;2023-05-01T00:03:33;15.00;99.90
47660;DHT22;33403;43.608;1.458;2023-05-01T00:06:03;14.90;99.90
47660;DHT22;33403;43.608;1.458;2023-05-01T00:08:32;14.90;99.90
47660;DHT22;33403;43.608;1.458;2023-05-01T00:11:02;14.90;99.90
47660;DHT22;33403;43.608;1.458;2023-05-01T00:13:28;14.90;99.90
47660;DHT22;33403;43.608;1.458;2023-05-01T00:15:54;15.00;99.90
47660;DHT22;33403;43.608;1.458;2023-05-01T00:18:20;15.00;99.90
47660;DHT22;33403;43.608;1.458;2023-05-01T00:20:46;15.00;99.90
47660;DHT22;33403;43.608;1.458;2023-05-01T00:23:11;15.00;99.90
47660;DHT22;33403;43.608;1.458;2023-05-01T00:25:38;15.00;99.90
47660;DHT22;33403;43.608;1.458;2023-05-01T00:28:04;15.00;99.90
47660;DHT22;33403;43.608;1.458;2023-05-01T00:30:31;15.00;99.90
47660;DHT22;33403;43.608;1.458;2023-05-01T00:32:57;15.00;99.90
47660;DHT22;33403;43.608;1.458;2023-05-01T00:35:24;14.90;99.90
47660;DHT22;33403;43.608;1.458;2023-05-01T00:37:50;14.90;99.90
47660;DHT22;33403;43.608;1.458;2023-05-01T00:40:15;14.90;99.90
47660;DHT22;33403;43.608;1.458;2023-05-01T00:42:41;14.90;99.90
47660;DHT22;33403;43.608;1.458;2023-05-01T00:45:07;14.90;99.90
47660;DHT22;33403;43.608;1.458;2023-05-01T00:47:36;14.90;99.90
47660;DHT22;33403;43.608;1.458;2023-05-01T00:50:03;15.00;99.90
47660;DHT22;33403;43.608;1.458;2023-05-01T00:52:29;15.00;99.90
47660;DHT22;33403;43.608;1.458;2023-05-01T00:54:56;14.90;99.90
47660;DHT22;33403;43.608;1.458;2023-05-01T00:57:22;14.90;99.90
47660;DHT22;33403;43.608;1.458;2023-05-01T00:59:48;14.90;99.90
47660;DHT22;33403;43.608;1.458;2023-05-01T01:02:14;14.90;99.90
47660;DHT22;33403;43.608;1.458;2023-05-01T01:04:42;14.90;99.90
47660;DHT22;33403;43.608;1.458;2023-05-01T01:07:36;14.90;99.90
47660;DHT22;33403;43.608;1.458;2023-05-01T01:12:49;14.80;99.90
47660;DHT22;33403;43.608;1.458;2023-05-01T01:15:34;14.90;99.90
47660;DHT22;33403;43.608;1.458;2023-05-01T01:18:15;14.90;99.90
47660;DHT22;33403;43.608;1.458;2023-05-01T01:21:03;14.90;99.90
47660;DHT22;33403;43.608;1.458;2023-05-01T01:23:52;14.90;99.90
47660;DHT22;33403;43.608;1.458;2023-05-01T01:32:02;14.90;99.90
47660;DHT22;33403;43.608;1.458;2023-05-01T01:34:55;14.80;99.90
47660;DHT22;33403;43.608;1.458;2023-05-01T01:37:59;14.80;99.90
47660;DHT22;33403;43.608;1.458;2023-05-01T01:40:31;14.70;99.90
47660;DHT22;33403;43.608;1.458;2023-05-01T01:43:02;14.80;99.90
47660;DHT22;33403;43.608;1.458;2023-05-01T01:45:42;14.80;99.90
47660;DHT22;33403;43.608;1.458;2023-05-01T01:48:15;14.80;99.90
47660;DHT22;33403;43.608;1.458;2023-05-01T01:50:43;14.70;99.90
47660;DHT22;33403;43.608;1.458;2023-05-01T01:53:13;14.70;99.90
47660;DHT22;33403;43.608;1.458;2023-05-01T01:55:42;14.70;99.90
47660;DHT22;33403;43.608;1.458;2023-05-01T01:58:10;14.70;99.90
47660;DHT22;33403;43.608;1.458;2023-05-01T02:00:36;14.60;99.90
47660;DHT22;33403;43.608;1.458;2023-05-01T02:03:04;14.70;99.90
47660;DHT22;33403;43.608;1.458;2023-05-01T02:05:31;14.60;99.90
47660;DHT22;33403;43.608;1.458;2023-05-01T02:07:58;14.60;99.90
47660;DHT22;33403;43.608;1.458;2023-05-01T02:10:26;14.50;99.90
47660;DHT22;33403;43.608;1.458;2023-05-01T02:12:54;14.40;99.90
47660;DHT22;33403;43.608;1.458;2023-05-01T02:15:21;14.40;99.90
47660;DHT22;33403;43.608;1.458;2023-05-01T02:17:48;14.50;99.90
47660;DHT22;33403;43.608;1.458;2023-05-01T02:20:15;14.50;99.90
47660;DHT22;33403;43.608;1.458;2023-05-01T02:22:42;14.50;99.90
47660;DHT22;33403;43.608;1.458;2023-05-01T02:25:12;14.40;99.90
47660;DHT22;33403;43.608;1.458;2023-05-01T02:27:42;14.40;99.90
47660;DHT22;33403;43.608;1.458;2023-05-01T02:30:10;14.40;99.90
47660;DHT22;33403;43.608;1.458;2023-05-01T02:32:36;14.40;99.90
47660;DHT22;33403;43.608;1.458;2023-05-01T02:35:02;14.40;99.90
47660;DHT22;33403;43.608;1.458;2023-05-01T02:37:28;14.30;99.90
47660;DHT22;33403;43.608;1.458;2023-05-01T02:39:55;14.30;99.90
47660;DHT22;33403;43.608;1.458;2023-05-01T02:42:22;14.30;99.90
47660;DHT22;33403;43.608;1.458;2023-05-01T02:45:18;14.30;99.90
47660;DHT22;33403;43.608;1.458;2023-05-01T02:47:47;14.40;99.90
47660;DHT22;33403;43.608;1.458;2023-05-01T02:50:15;14.50;99.90
47660;DHT22;33403;43.608;1.458;2023-05-01T02:52:41;14.40;99.90
47660;DHT22;33403;43.608;1.458;2023-05-01T02:55:08;14.30;99.90
47660;DHT22;33403;43.608;1.458;2023-05-01T02:57:34;14.30;99.90
47660;DHT22;33403;43.608;1.458;2023-05-01T03:00:00;14.30;99.90
47660;DHT22;33403;43.608;1.458;2023-05-01T03:02:25;14.30;99.90
47660;DHT22;33403;43.608;1.458;2023-05-01T03:04:51;14.40;99.90
47660;DHT22;33403;43.608;1.458;2023-05-01T03:07:17;14.40;99.90
47660;DHT22;33403;43.608;1.458;2023-05-01T03:09:43;14.40;99.90
47660;DHT22;33403;43.608;1.458;2023-05-01T03:12:08;14.40;99.90
47660;DHT22;33403;43.608;1.458;2023-05-01T03:14:34;14.40;99.90
47660;DHT22;33403;43.608;1.458;2023-05-01T03:17:00;14.30;99.90
47660;DHT22;33403;43.608;1.458;2023-05-01T03:19:26;14.30;99.90
47660;DHT22;33403;43.608;1.458;2023-05-01T03:21:51;14.30;99.90
47660;DHT22;33403;43.608;1.458;2023-05-01T03:24:17;14.30;99.90
47660;DHT22;33403;43.608;1.458;2023-05-01T03:26:43;14.40;99.90
47660;DHT22;33403;43.608;1.458;2023-05-01T03:29:08;14.30;99.90
47660;DHT22;33403;43.608;1.458;2023-05-01T03:31:34;14.30;99.90
47660;DHT22;33403;43.608;1.458;2023-05-01T03:34:00;14.30;99.90
47660;DHT22;33403;43.608;1.458;2023-05-01T03:36:25;14.30;99.90
47660;DHT22;33403;43.608;1.458;2023-05-01T03:38:52;14.30;99.90
47660;DHT22;33403;43.608;1.458;2023-05-01T03:41:18;14.30;99.90
47660;DHT22;33403;43.608;1.458;2023-05-01T03:43:43;14.30;99.90
47660;DHT22;33403;43.608;1.458;2023-05-01T03:46:09;14.40;99.90
47660;DHT22;33403;43.608;1.458;2023-05-01T03:48:35;14.30;99.90
47660;DHT22;33403;43.608;1.458;2023-05-01T03:51:00;14.30;99.90
47660;DHT22;33403;43.608;1.458;2023-05-01T03:53:26;14.30;99.90
47660;DHT22;33403;43.608;1.458;2023-05-01T03:55:52;14.30;99.90
47660;DHT22;33403;43.608;1.458;2023-05-01T03:58:17;14.30;99.90
47660;DHT22;33403;43.608;1.458;2023-05-01T04:00:43;14.30;99.90
47660;DHT22;33403;43.608;1.458;2023-05-01T04:03:09;14.30;99.90
47660;DHT22;33403;43.608;1.458;2023-05-01T04:05:34;14.30;99.90
47660;DHT22;33403;43.608;1.458;2023-05-01T04:08:00;14.30;99.90
47660;DHT22;33403;43.608;1.458;2023-05-01T04:10:26;14.20;99.90
47660;DHT22;33403;43.608;1.458;2023-05-01T04:12:51;14.30;99.90
47660;DHT22;33403;43.608;1.458;2023-05-01T04:15:17;14.20;99.90
47660;DHT22;33403;43.608;1.458;2023-05-01T04:17:43;14.20;99.90
47660;DHT22;33403;43.608;1.458;2023-05-01T04:20:09;14.20;99.90
47660;DHT22;33403;43.608;1.458;2023-05-01T04:22:36;14.10;99.90
47660;DHT22;33403;43.608;1.458;2023-05-01T04:25:02;14.20;99.90
47660;DHT22;33403;43.608;1.458;2023-05-01T04:27:29;14.20;99.90
47660;DHT22;33403;43.608;1.458;2023-05-01T04:29:55;14.20;99.90
47660;DHT22;33403;43.608;1.458;2023-05-01T04:32:21;14.20;99.90
47660;DHT22;33403;43.608;1.458;2023-05-01T04:34:46;14.20;99.90
47660;DHT22;33403;43.608;1.458;2023-05-01T04:37:12;14.20;99.90
47660;DHT22;33403;43.608;1.458;2023-05-01T04:39:38;14.20;99.90
47660;DHT22;33403;43.608;1.458;2023-05-01T04:42:04;14.20;99.90
47660;DHT22;33403;43.608;1.458;2023-05-01T04:44:30;14.20;99.90
47660;DHT22;33403;43.608;1.458;2023-05-01T04:47:00;14.20;99.90
47660;DHT22;33403;43.608;1.458;2023-05-01T04:49:26;14.20;99.90
47660;DHT22;33403;43.608;1.458;2023-05-01T04:51:52;14.20;99.90
47660;DHT22;33403;43.608;1.458;2023-05-01T04:54:18;14.20;99.90
47660;DHT22;33403;43.608;1.458;2023-05-01T04:56:43;14.20;99.90
47660;DHT22;33403;43.608;1.458;2023-05-01T04:59:09;14.20;99.90
47660;DHT22;33403;43.608;1.458;2023-05-01T05:01:35;14.20;99.90
47660;DHT22;33403;43.608;1.458;2023-05-01T05:04:00;14.00;99.90
47660;DHT22;33403;43.608;1.458;2023-05-01T05:06:26;14.10;99.90
47660;DHT22;33403;43.608;1.458;2023-05-01T05:08:51;14.10;99.90
47660;DHT22;33403;43.608;1.458;2023-05-01T05:11:18;14.10;99.90
47660;DHT22;33403;43.608;1.458;2023-05-01T05:13:44;14.10;99.90
47660;DHT22;33403;43.608;1.458;2023-05-01T05:16:10;14.10;99.90
47660;DHT22;33403;43.608;1.458;2023-05-01T05:18:36;14.10;99.90
47660;DHT22;33403;43.608;1.458;2023-05-01T05:21:06;14.10;99.90
47660;DHT22;33403;43.608;1.458;2023-05-01T05:23:33;14.20;99.90
47660;DHT22;33403;43.608;1.458;2023-05-01T05:25:59;14.10;99.90
47660;DHT22;33403;43.608;1.458;2023-05-01T05:28:28;14.20;99.90
47660;DHT22;33403;43.608;1.458;2023-05-01T05:30:57;14.30;99.90
47660;DHT22;33403;43.608;1.458;2023-05-01T05:33:23;14.20;99.90
47660;DHT22;33403;43.608;1.458;2023-05-01T05:35:50;14.20;99.90
47660;DHT22;33403;43.608;1.458;2023-05-01T05:38:16;14.10;99.90
47660;DHT22;33403;43.608;1.458;2023-05-01T05:40:42;14.10;99.90
47660;DHT22;33403;43.608;1.458;2023-05-01T05:43:08;14.10;99.90
47660;DHT22;33403;43.608;1.458;2023-05-01T05:45:35;14.20;99.90
47660;DHT22;33403;43.608;1.458;2023-05-01T05:48:01;14.20;99.90
47660;DHT22;33403;43.608;1.458;2023-05-01T05:50:26;14.30;99.90
47660;DHT22;33403;43.608;1.458;2023-05-01T05:52:52;14.30;99.90
47660;DHT22;33403;43.608;1.458;2023-05-01T05:55:18;14.30;99.90
47660;DHT22;33403;43.608;1.458;2023-05-01T05:57:43;14.30;99.90
47660;DHT22;33403;43.608;1.458;2023-05-01T06:00:10;14.30;99.90
47660;DHT22;33403;43.608;1.458;2023-05-01T06:02:35;14.30;99.90
47660;DHT22;33403;43.608;1.458;2023-05-01T06:05:02;14.20;99.90
47660;DHT22;33403;43.608;1.458;2023-05-01T06:07:27;14.10;99.90
47660;DHT22;33403;43.608;1.458;2023-05-01T06:09:53;14.10;99.90
47660;DHT22;33403;43.608;1.458;2023-05-01T06:12:19;14.10;99.90
47660;DHT22;33403;43.608;1.458;2023-05-01T06:14:45;14.10;99.90
47660;DHT22;33403;43.608;1.458;2023-05-01T06:17:11;14.10;99.90
47660;DHT22;33403;43.608;1.458;2023-05-01T06:19:38;14.00;99.90
47660;DHT22;33403;43.608;1.458;2023-05-01T06:22:04;13.90;99.90
47660;DHT22;33403;43.608;1.458;2023-05-01T06:24:31;13.90;99.90
47660;DHT22;33403;43.608;1.458;2023-05-01T06:26:57;13.90;99.90
47660;DHT22;33403;43.608;1.458;2023-05-01T06:29:22;13.90;99.90
47660;DHT22;33403;43.608;1.458;2023-05-01T06:31:48;14.00;99.90
47660;DHT22;33403;43.608;1.458;2023-05-01T06:34:13;13.90;99.90
47660;DHT22;33403;43.608;1.458;2023-05-01T06:36:39;14.10;99.90
47660;DHT22;33403;43.608;1.458;2023-05-01T06:39:05;14.10;99.90
47660;DHT22;33403;43.608;1.458;2023-05-01T06:41:31;14.20;99.90
47660;DHT22;33403;43.608;1.458;2023-05-01T06:43:57;14.30;99.90
47660;DHT22;33403;43.608;1.458;2023-05-01T06:46:22;14.50;99.90
47660;DHT22;33403;43.608;1.458;2023-05-01T06:48:48;14.40;99.90
47660;DHT22;33403;43.608;1.458;2023-05-01T06:51:14;14.50;99.90
47660;DHT22;33403;43.608;1.458;2023-05-01T06:53:40;14.50;99.90
47660;DHT22;33403;43.608;1.458;2023-05-01T06:56:07;14.60;99.90
47660;DHT22;33403;43.608;1.458;2023-05-01T06:58:32;14.60;99.90
47660;DHT22;33403;43.608;1.458;2023-05-01T07:00:58;14.60;99.90
47660;DHT22;33403;43.608;1.458;2023-05-01T07:03:24;14.50;99.90
47660;DHT22;33403;43.608;1.458;2023-05-01T07:05:55;14.60;99.90
47660;DHT22;33403;43.608;1.458;2023-05-01T07:08:20;14.50;99.90
47660;DHT22;33403;43.608;1.458;2023-05-01T07:10:46;14.60;99.90
47660;DHT22;33403;43.608;1.458;2023-05-01T07:13:14;14.60;99.90
47660;DHT22;33403;43.608;1.458;2023-05-01T07:15:40;14.60;99.90
47660;DHT22;33403;43.608;1.458;2023-05-01T07:18:06;14.60;99.90
47660;DHT22;33403;43.608;1.458;2023-05-01T07:20:31;14.50;99.90
47660;DHT22;33403;43.608;1.458;2023-05-01T07:22:57;14.50;99.90
47660;DHT22;33403;43.608;1.458;2023-05-01T07:25:23;14.50;99.90
47660;DHT22;33403;43.608;1.458;2023-05-01T07:27:49;14.50;99.90
47660;DHT22;33403;43.608;1.458;2023-05-01T07:30:15;14.50;99.90
47660;DHT22;33403;43.608;1.458;2023-05-01T07:32:40;14.60;99.90
47660;DHT22;33403;43.608;1.458;2023-05-01T07:35:06;14.70;99.90
47660;DHT22;33403;43.608;1.458;2023-05-01T07:37:32;14.80;99.90
47660;DHT22;33403;43.608;1.458;2023-05-01T07:39:58;14.90;99.90
47660;DHT22;33403;43.608;1.458;2023-05-01T07:42:26;15.00;99.90
47660;DHT22;33403;43.608;1.458;2023-05-01T07:44:51;15.00;99.90
47660;DHT22;33403;43.608;1.458;2023-05-01T07:47:17;14.90;99.90
47660;DHT22;33403;43.608;1.458;2023-05-01T07:49:43;14.90;99.90
47660;DHT22;33403;43.608;1.458;2023-05-01T07:52:09;14.80;99.90
47660;DHT22;33403;43.608;1.458;2023-05-01T07:54:35;14.80;99.90
47660;DHT22;33403;43.608;1.458;2023-05-01T07:57:01;14.70;99.90
47660;DHT22;33403;43.608;1.458;2023-05-01T07:59:27;14.90;99.90
47660;DHT22;33403;43.608;1.458;2023-05-01T08:01:53;14.90;99.90
47660;DHT22;33403;43.608;1.458;2023-05-01T08:04:18;14.90;99.90
47660;DHT22;33403;43.608;1.458;2023-05-01T08:06:50;14.90;99.90
47660;DHT22;33403;43.608;1.458;2023-05-01T08:09:16;14.90;99.90
47660;DHT22;33403;43.608;1.458;2023-05-01T08:11:41;14.80;99.90
47660;DHT22;33403;43.608;1.458;2023-05-01T08:14:07;14.80;99.90
47660;DHT22;33403;43.608;1.458;2023-05-01T08:16:34;14.80;99.90
47660;DHT22;33403;43.608;1.458;2023-05-01T08:19:00;14.80;99.90
47660;DHT22;33403;43.608;1.458;2023-05-01T08:21:26;14.80;99.90
47660;DHT22;33403;43.608;1.458;2023-05-01T08:23:54;14.80;99.90
47660;DHT22;33403;43.608;1.458;2023-05-01T08:26:20;14.80;99.90
47660;DHT22;33403;43.608;1.458;2023-05-01T08:28:46;14.80;99.90
47660;DHT22;33403;43.608;1.458;2023-05-01T08:31:12;14.80;99.90
47660;DHT22;33403;43.608;1.458;2023-05-01T08:33:38;14.80;99.90
47660;DHT22;33403;43.608;1.458;2023-05-01T08:36:06;14.90;99.90
47660;DHT22;33403;43.608;1.458;2023-05-01T08:38:32;14.90;99.90
47660;DHT22;33403;43.608;1.458;2023-05-01T08:40:58;14.90;99.90
47660;DHT22;33403;43.608;1.458;2023-05-01T08:43:26;14.80;99.90
47660;DHT22;33403;43.608;1.458;2023-05-01T08:45:55;14.80;99.90
47660;DHT22;33403;43.608;1.458;2023-05-01T08:48:23;14.70;99.90
47660;DHT22;33403;43.608;1.458;2023-05-01T08:50:51;14.70;99.90
47660;DHT22;33403;43.608;1.458;2023-05-01T08:53:19;14.60;99.90
47660;DHT22;33403;43.608;1.458;2023-05-01T08:55:47;14.50;99.90
47660;DHT22;33403;43.608;1.458;2023-05-01T08:58:16;14.60;99.90
47660;DHT22;33403;43.608;1.458;2023-05-01T09:00:43;14.70;99.90
47660;DHT22;33403;43.608;1.458;2023-05-01T09:03:11;15.00;99.90
47660;DHT22;33403;43.608;1.458;2023-05-01T09:05:40;15.20;99.90
47660;DHT22;33403;43.608;1.458;2023-05-01T09:08:06;15.40;99.90
47660;DHT22;33403;43.608;1.458;2023-05-01T09:10:32;15.50;99.90
47660;DHT22;33403;43.608;1.458;2023-05-01T09:13:03;15.60;99.90
47660;DHT22;33403;43.608;1.458;2023-05-01T09:15:31;15.50;99.90
47660;DHT22;33403;43.608;1.458;2023-05-01T09:17:59;15.40;99.90
47660;DHT22;33403;43.608;1.458;2023-05-01T09:20:25;15.40;99.90
47660;DHT22;33403;43.608;1.458;2023-05-01T09:22:51;15.40;99.90
47660;DHT22;33403;43.608;1.458;2023-05-01T09:25:17;15.40;99.90
47660;DHT22;33403;43.608;1.458;2023-05-01T09:27:44;15.40;99.90
47660;DHT22;33403;43.608;1.458;2023-05-01T09:30:32;15.40;99.90
47660;DHT22;33403;43.608;1.458;2023-05-01T09:33:04;15.50;99.90
47660;DHT22;33403;43.608;1.458;2023-05-01T09:35:30;15.50;99.90
47660;DHT22;33403;43.608;1.458;2023-05-01T09:37:57;15.60;99.90
47660;DHT22;33403;43.608;1.458;2023-05-01T09:40:26;15.70;99.90
47660;DHT22;33403;43.608;1.458;2023-05-01T09:42:52;15.70;99.90
47660;DHT22;33403;43.608;1.458;2023-05-01T09:45:20;15.60;99.90
47660;DHT22;33403;43.608;1.458;2023-05-01T09:47:47;15.50;99.90
47660;DHT22;33403;43.608;1.458;2023-05-01T09:50:30;15.50;99.90
47660;DHT22;33403;43.608;1.458;2023-05-01T09:52:57;15.60;99.90
47660;DHT22;33403;43.608;1.458;2023-05-01T09:55:23;15.90;99.90
47660;DHT22;33403;43.608;1.458;2023-05-01T09:57:49;16.00;99.90
47660;DHT22;33403;43.608;1.458;2023-05-01T10:00:15;16.10;99.90
47660;DHT22;33403;43.608;1.458;2023-05-01T10:02:45;16.30;99.90
47660;DHT22;33403;43.608;1.458;2023-05-01T10:05:12;16.40;99.90
47660;DHT22;33403;43.608;1.458;2023-05-01T10:07:38;16.40;99.90
47660;DHT22;33403;43.608;1.458;2023-05-01T10:10:17;16.40;99.90
47660;DHT22;33403;43.608;1.458;2023-05-01T10:12:43;16.50;99.90
47660;DHT22;33403;43.608;1.458;2023-05-01T10:15:08;16.50;99.90
47660;DHT22;33403;43.608;1.458;2023-05-01T10:17:34;16.60;99.90
47660;DHT22;33403;43.608;1.458;2023-05-01T10:20:00;16.60;99.90
47660;DHT22;33403;43.608;1.458;2023-05-01T10:22:26;16.70;99.90
47660;DHT22;33403;43.608;1.458;2023-05-01T10:24:53;16.90;99.90
47660;DHT22;33403;43.608;1.458;2023-05-01T10:27:18;17.10;99.90
47660;DHT22;33403;43.608;1.458;2023-05-01T10:29:47;17.30;99.90
47660;DHT22;33403;43.608;1.458;2023-05-01T10:32:16;17.50;99.90
47660;DHT22;33403;43.608;1.458;2023-05-01T10:34:46;17.60;99.90
47660;DHT22;33403;43.608;1.458;2023-05-01T10:37:46;17.60;99.90
47660;DHT22;33403;43.608;1.458;2023-05-01T10:43:28;17.50;99.90
47660;DHT22;33403;43.608;1.458;2023-05-01T10:53:39;16.90;99.90
47660;DHT22;33403;43.608;1.458;2023-05-01T10:58:57;17.00;99.90
47660;DHT22;33403;43.608;1.458;2023-05-01T11:01:27;17.10;99.90
47660;DHT22;33403;43.608;1.458;2023-05-01T11:03:54;17.30;99.90
47660;DHT22;33403;43.608;1.458;2023-05-01T11:06:20;17.50;99.90
47660;DHT22;33403;43.608;1.458;2023-05-01T11:08:45;17.50;99.90
47660;DHT22;33403;43.608;1.458;2023-05-01T11:14:02;17.70;99.90
47660;DHT22;33403;43.608;1.458;2023-05-01T11:19:08;18.00;99.90
47660;DHT22;33403;43.608;1.458;2023-05-01T11:21:36;18.00;99.90
47660;DHT22;33403;43.608;1.458;2023-05-01T11:24:03;18.00;99.90
47660;DHT22;33403;43.608;1.458;2023-05-01T11:26:30;18.10;99.90
47660;DHT22;33403;43.608;1.458;2023-05-01T11:29:00;18.30;99.90
47660;DHT22;33403;43.608;1.458;2023-05-01T11:31:26;18.40;99.90
47660;DHT22;33403;43.608;1.458;2023-05-01T11:33:57;18.40;99.90
47660;DHT22;33403;43.608;1.458;2023-05-01T11:36:23;18.40;99.90
47660;DHT22;33403;43.608;1.458;2023-05-01T11:38:57;18.30;99.90
47660;DHT22;33403;43.608;1.458;2023-05-01T11:41:24;18.20;99.90
47660;DHT22;33403;43.608;1.458;2023-05-01T11:43:56;18.20;99.90
47660;DHT22;33403;43.608;1.458;2023-05-01T11:46:29;17.90;99.90
47660;DHT22;33403;43.608;1.458;2023-05-01T11:48:55;18.00;99.90
47660;DHT22;33403;43.608;1.458;2023-05-01T11:51:22;18.00;99.90
47660;DHT22;33403;43.608;1.458;2023-05-01T11:54:09;18.00;99.90
47660;DHT22;33403;43.608;1.458;2023-05-01T11:56:36;18.10;99.90
47660;DHT22;33403;43.608;1.458;2023-05-01T11:59:13;18.00;99.90
47660;DHT22;33403;43.608;1.458;2023-05-01T12:01:46;18.00;99.90
47660;DHT22;33403;43.608;1.458;2023-05-01T12:04:12;18.30;99.90
47660;DHT22;33403;43.608;1.458;2023-05-01T12:06:47;18.30;99.90
47660;DHT22;33403;43.608;1.458;2023-05-01T12:09:20;18.00;99.90
47660;DHT22;33403;43.608;1.458;2023-05-01T12:11:48;18.10;99.90
47660;DHT22;33403;43.608;1.458;2023-05-01T12:14:14;18.30;99.90
47660;DHT22;33403;43.608;1.458;2023-05-01T12:16:41;18.40;99.90
47660;DHT22;33403;43.608;1.458;2023-05-01T12:19:07;18.30;99.90
47660;DHT22;33403;43.608;1.458;2023-05-01T12:21:35;18.00;99.90
47660;DHT22;33403;43.608;1.458;2023-05-01T12:24:11;17.80;99.90
47660;DHT22;33403;43.608;1.458;2023-05-01T12:26:37;17.70;99.90
47660;DHT22;33403;43.608;1.458;2023-05-01T12:29:05;17.60;99.90
47660;DHT22;33403;43.608;1.458;2023-05-01T12:31:32;17.80;99.90
47660;DHT22;33403;43.608;1.458;2023-05-01T12:34:03;17.80;99.90
47660;DHT22;33403;43.608;1.458;2023-05-01T12:36:31;17.80;99.90
47660;DHT22;33403;43.608;1.458;2023-05-01T12:39:02;17.60;99.90
47660;DHT22;33403;43.608;1.458;2023-05-01T12:41:51;17.60;99.90
47660;DHT22;33403;43.608;1.458;2023-05-01T12:44:21;17.60;99.90
47660;DHT22;33403;43.608;1.458;2023-05-01T12:47:04;17.90;99.90
47660;DHT22;33403;43.608;1.458;2023-05-01T12:49:34;18.20;99.90
47660;DHT22;33403;43.608;1.458;2023-05-01T12:52:03;18.40;99.90
47660;DHT22;33403;43.608;1.458;2023-05-01T12:54:34;18.50;99.90
47660;DHT22;33403;43.608;1.458;2023-05-01T12:57:08;18.50;99.90
47660;DHT22;33403;43.608;1.458;2023-05-01T12:59:39;18.60;99.90
47660;DHT22;33403;43.608;1.458;2023-05-01T13:02:09;18.70;99.90
47660;DHT22;33403;43.608;1.458;2023-05-01T13:04:36;18.90;99.90
47660;DHT22;33403;43.608;1.458;2023-05-01T13:07:03;18.80;99.90
47660;DHT22;33403;43.608;1.458;2023-05-01T13:09:34;18.80;99.90
47660;DHT22;33403;43.608;1.458;2023-05-01T13:14:41;19.40;99.90
47660;DHT22;33403;43.608;1.458;2023-05-01T13:17:08;19.50;99.90
47660;DHT22;33403;43.608;1.458;2023-05-01T13:19:34;19.50;99.90
47660;DHT22;33403;43.608;1.458;2023-05-01T13:22:00;19.70;99.90
47660;DHT22;33403;43.608;1.458;2023-05-01T13:24:39;19.50;99.90
47660;DHT22;33403;43.608;1.458;2023-05-01T13:27:10;19.40;99.90
47660;DHT22;33403;43.608;1.458;2023-05-01T13:29:37;19.20;99.90
47660;DHT22;33403;43.608;1.458;2023-05-01T13:32:04;19.00;99.90
47660;DHT22;33403;43.608;1.458;2023-05-01T13:34:32;19.00;99.90
47660;DHT22;33403;43.608;1.458;2023-05-01T13:36:59;19.00;99.90
47660;DHT22;33403;43.608;1.458;2023-05-01T13:39:25;19.10;99.90
47660;DHT22;33403;43.608;1.458;2023-05-01T13:41:51;19.30;99.90
47660;DHT22;33403;43.608;1.458;2023-05-01T13:44:18;19.40;99.90
47660;DHT22;33403;43.608;1.458;2023-05-01T13:46:45;19.30;99.90
47660;DHT22;33403;43.608;1.458;2023-05-01T13:49:11;19.50;99.90
47660;DHT22;33403;43.608;1.458;2023-05-01T13:51:42;19.50;99.90
47660;DHT22;33403;43.608;1.458;2023-05-01T13:54:09;19.70;99.90
47660;DHT22;33403;43.608;1.458;2023-05-01T13:56:36;19.80;99.90
47660;DHT22;33403;43.608;1.458;2023-05-01T13:59:03;19.90;99.90
47660;DHT22;33403;43.608;1.458;2023-05-01T14:01:29;19.80;99.90
47660;DHT22;33403;43.608;1.458;2023-05-01T14:03:55;19.70;99.90
47660;DHT22;33403;43.608;1.458;2023-05-01T14:06:22;19.60;99.90
47660;DHT22;33403;43.608;1.458;2023-05-01T14:08:56;19.40;99.90
47660;DHT22;33403;43.608;1.458;2023-05-01T14:11:22;19.20;99.90
47660;DHT22;33403;43.608;1.458;2023-05-01T14:13:49;19.00;99.90
47660;DHT22;33403;43.608;1.458;2023-05-01T14:16:26;18.80;99.90
47660;DHT22;33403;43.608;1.458;2023-05-01T14:18:54;18.80;99.90
47660;DHT22;33403;43.608;1.458;2023-05-01T14:21:22;18.90;99.90
47660;DHT22;33403;43.608;1.458;2023-05-01T14:23:50;18.80;99.90
47660;DHT22;33403;43.608;1.458;2023-05-01T14:26:20;18.70;99.90
47660;DHT22;33403;43.608;1.458;2023-05-01T14:28:46;18.60;99.90
47660;DHT22;33403;43.608;1.458;2023-05-01T14:31:32;18.60;99.90
47660;DHT22;33403;43.608;1.458;2023-05-01T14:34:00;18.50;99.90
47660;DHT22;33403;43.608;1.458;2023-05-01T14:36:27;18.50;99.90
47660;DHT22;33403;43.608;1.458;2023-05-01T14:38:59;18.50;99.90
47660;DHT22;33403;43.608;1.458;2023-05-01T14:41:25;18.40;99.90
47660;DHT22;33403;43.608;1.458;2023-05-01T14:43:50;18.50;99.90
47660;DHT22;33403;43.608;1.458;2023-05-01T14:46:42;18.50;99.90
47660;DHT22;33403;43.608;1.458;2023-05-01T14:49:20;18.40;99.90
47660;DHT22;33403;43.608;1.458;2023-05-01T14:51:46;18.50;99.90
47660;DHT22;33403;43.608;1.458;2023-05-01T14:54:12;18.50;99.90
47660;DHT22;33403;43.608;1.458;2023-05-01T14:56:39;18.50;99.90
47660;DHT22;33403;43.608;1.458;2023-05-01T14:59:05;18.40;99.90
47660;DHT22;33403;43.608;1.458;2023-05-01T15:01:31;18.40;99.90
47660;DHT22;33403;43.608;1.458;2023-05-01T15:03:56;18.50;99.90
47660;DHT22;33403;43.608;1.458;2023-05-01T15:06:22;18.60;99.90
47660;DHT22;33403;43.608;1.458;2023-05-01T15:08:49;18.70;99.90
47660;DHT22;33403;43.608;1.458;2023-05-01T15:11:15;18.60;99.90
47660;DHT22;33403;43.608;1.458;2023-05-01T15:13:43;18.60;99.90
47660;DHT22;33403;43.608;1.458;2023-05-01T15:16:09;18.60;99.90
47660;DHT22;33403;43.608;1.458;2023-05-01T15:18:35;18.50;99.90
47660;DHT22;33403;43.608;1.458;2023-05-01T15:21:02;18.50;99.90
47660;DHT22;33403;43.608;1.458;2023-05-01T15:23:27;18.50;99.90
47660;DHT22;33403;43.608;1.458;2023-05-01T15:25:53;18.50;99.90
47660;DHT22;33403;43.608;1.458;2023-05-01T15:28:19;18.50;99.90
47660;DHT22;33403;43.608;1.458;2023-05-01T15:30:45;18.50;99.90
47660;DHT22;33403;43.608;1.458;2023-05-01T15:33:14;18.50;99.90
47660;DHT22;33403;43.608;1.458;2023-05-01T15:35:40;18.40;99.90
47660;DHT22;33403;43.608;1.458;2023-05-01T15:38:05;18.40;99.90
47660;DHT22;33403;43.608;1.458;2023-05-01T15:40:31;18.40;99.90
47660;DHT22;33403;43.608;1.458;2023-05-01T15:42:57;18.40;99.90
47660;DHT22;33403;43.608;1.458;2023-05-01T15:45:23;18.30;99.90
47660;DHT22;33403;43.608;1.458;2023-05-01T15:47:49;18.30;99.90
47660;DHT22;33403;43.608;1.458;2023-05-01T15:50:14;18.20;99.90
47660;DHT22;33403;43.608;1.458;2023-05-01T15:52:40;18.20;99.90
47660;DHT22;33403;43.608;1.458;2023-05-01T15:55:06;18.20;99.90
47660;DHT22;33403;43.608;1.458;2023-05-01T15:57:33;18.20;99.90
47660;DHT22;33403;43.608;1.458;2023-05-01T15:59:59;18.30;99.90
47660;DHT22;33403;43.608;1.458;2023-05-01T16:02:25;18.20;99.90
47660;DHT22;33403;43.608;1.458;2023-05-01T16:04:55;18.20;99.90